Terminal Aerodrome Forecast
Issued by NWS

Home | Current Version | Previous Version | Text Only | Print | Product List | Glossary On
Versions: 1 2 3 4 5 6 7 8 9 10 11 12 13 14 15
000
FTUS43 KLSX 101729
TAFSUS
TAF
KSUS 101729Z 1018/1118 27012G20KT P6SM FEW120
     FM102300 29007KT P6SM FEW100
     FM110300 VRB03KT P6SM FEW250
     FM111500 20007KT P6SM SCT150=

USA.gov is the U.S. government's official web portal to all federal, state and local government web resources and services.